sensor_id;sensor_type;location;lat;lon;timestamp;pressure;altitude;pressure_sealevel;temperature;humidity
9421;BME280;4749;51.398;5.466;2023-03-15T00:01:08;101034.66;;;4.42;100.00
9421;BME280;4749;51.398;5.466;2023-03-15T00:03:36;101032.03;;;4.42;100.00
9421;BME280;4749;51.398;5.466;2023-03-15T00:06:04;101041.63;;;4.43;100.00
9421;BME280;4749;51.398;5.466;2023-03-15T00:08:32;101029.41;;;4.40;100.00
9421;BME280;4749;51.398;5.466;2023-03-15T00:11:01;101038.09;;;4.41;100.00
9421;BME280;4749;51.398;5.466;2023-03-15T00:13:29;101038.97;;;4.41;100.00
9421;BME280;4749;51.398;5.466;2023-03-15T00:16:00;101035.53;;;4.42;100.00
9421;BME280;4749;51.398;5.466;2023-03-15T00:18:30;101032.09;;;4.43;100.00
9421;BME280;4749;51.398;5.466;2023-03-15T00:20:57;101034.84;;;4.48;100.00
9421;BME280;4749;51.398;5.466;2023-03-15T00:23:25;101029.72;;;4.51;100.00
9421;BME280;4749;51.398;5.466;2023-03-15T00:25:53;101028.91;;;4.53;100.00
9421;BME280;4749;51.398;5.466;2023-03-15T00:28:20;101035.06;;;4.56;100.00
9421;BME280;4749;51.398;5.466;2023-03-15T00:30:47;101042.09;;;4.58;100.00
9421;BME280;4749;51.398;5.466;2023-03-15T00:33:15;101048.22;;;4.60;100.00
9421;BME280;4749;51.398;5.466;2023-03-15T00:35:44;101050.97;;;4.65;100.00
9421;BME280;4749;51.398;5.466;2023-03-15T00:38:12;101051.00;;;4.66;100.00
9421;BME280;4749;51.398;5.466;2023-03-15T00:40:40;101054.56;;;4.70;100.00
9421;BME280;4749;51.398;5.466;2023-03-15T00:43:07;101052.09;;;4.73;100.00
9421;BME280;4749;51.398;5.466;2023-03-15T00:45:35;101057.38;;;4.76;100.00
9421;BME280;4749;51.398;5.466;2023-03-15T00:48:02;101056.56;;;4.78;100.00
9421;BME280;4749;51.398;5.466;2023-03-15T00:50:30;101055.84;;;4.83;100.00
9421;BME280;4749;51.398;5.466;2023-03-15T00:52:57;101055.88;;;4.84;100.00
9421;BME280;4749;51.398;5.466;2023-03-15T00:55:24;101048.06;;;4.84;100.00
9421;BME280;4749;51.398;5.466;2023-03-15T00:57:52;101049.81;;;4.85;100.00
9421;BME280;4749;51.398;5.466;2023-03-15T01:00:22;101046.31;;;4.83;100.00
9421;BME280;4749;51.398;5.466;2023-03-15T01:02:52;101052.25;;;4.79;100.00
9421;BME280;4749;51.398;5.466;2023-03-15T01:05:20;101060.84;;;4.76;100.00
9421;BME280;4749;51.398;5.466;2023-03-15T01:07:48;101060.81;;;4.75;100.00
9421;BME280;4749;51.398;5.466;2023-03-15T01:10:16;101057.19;;;4.70;100.00
9421;BME280;4749;51.398;5.466;2023-03-15T01:12:44;101062.31;;;4.67;100.00
9421;BME280;4749;51.398;5.466;2023-03-15T01:15:14;101061.44;;;4.66;100.00
9421;BME280;4749;51.398;5.466;2023-03-15T01:17:42;101067.53;;;4.67;100.00
9421;BME280;4749;51.398;5.466;2023-03-15T01:20:12;101071.84;;;4.66;100.00
9421;BME280;4749;51.398;5.466;2023-03-15T01:22:40;101069.19;;;4.65;100.00
9421;BME280;4749;51.398;5.466;2023-03-15T01:25:08;101065.69;;;4.63;100.00
9421;BME280;4749;51.398;5.466;2023-03-15T01:27:35;101068.16;;;4.60;100.00
9421;BME280;4749;51.398;5.466;2023-03-15T01:30:04;101068.88;;;4.54;100.00
9421;BME280;4749;51.398;5.466;2023-03-15T01:32:32;101075.63;;;4.47;100.00
9421;BME280;4749;51.398;5.466;2023-03-15T01:35:00;101071.25;;;4.46;100.00
9421;BME280;4749;51.398;5.466;2023-03-15T01:37:27;101084.19;;;4.45;100.00
9421;BME280;4749;51.398;5.466;2023-03-15T01:39:54;101085.88;;;4.43;100.00
9421;BME280;4749;51.398;5.466;2023-03-15T01:42:21;101085.84;;;4.41;100.00
9421;BME280;4749;51.398;5.466;2023-03-15T01:44:58;101085.00;;;4.42;100.00
9421;BME280;4749;51.398;5.466;2023-03-15T01:47:28;101089.34;;;4.43;100.00
9421;BME280;4749;51.398;5.466;2023-03-15T01:50:08;101091.09;;;4.43;100.00
9421;BME280;4749;51.398;5.466;2023-03-15T01:52:40;101088.47;;;4.43;100.00
9421;BME280;4749;51.398;5.466;2023-03-15T01:55:12;101084.03;;;4.39;100.00
9421;BME280;4749;51.398;5.466;2023-03-15T01:57:51;101089.19;;;4.37;100.00
9421;BME280;4749;51.398;5.466;2023-03-15T02:00:23;101084.75;;;4.35;100.00
9421;BME280;4749;51.398;5.466;2023-03-15T02:06:01;101091.66;;;4.34;100.00
9421;BME280;4749;51.398;5.466;2023-03-15T02:08:36;101089.06;;;4.34;100.00
9421;BME280;4749;51.398;5.466;2023-03-15T02:11:05;101091.63;;;4.33;100.00
9421;BME280;4749;51.398;5.466;2023-03-15T02:13:34;101094.19;;;4.31;100.00
9421;BME280;4749;51.398;5.466;2023-03-15T02:16:02;101098.59;;;4.34;100.00
9421;BME280;4749;51.398;5.466;2023-03-15T02:18:32;101100.41;;;4.36;100.00
9421;BME280;4749;51.398;5.466;2023-03-15T02:21:35;101110.00;;;4.37;100.00
9421;BME280;4749;51.398;5.466;2023-03-15T02:24:45;101110.00;;;4.37;100.00
9421;BME280;4749;51.398;5.466;2023-03-15T02:27:28;101122.03;;;4.34;100.00
9421;BME280;4749;51.398;5.466;2023-03-15T02:29:56;101132.41;;;4.32;100.00
9421;BME280;4749;51.398;5.466;2023-03-15T02:32:24;101129.59;;;4.26;100.00
9421;BME280;4749;51.398;5.466;2023-03-15T02:34:52;101125.88;;;4.19;100.00
9421;BME280;4749;51.398;5.466;2023-03-15T02:37:19;101126.59;;;4.14;100.00
9421;BME280;4749;51.398;5.466;2023-03-15T02:39:47;101132.56;;;4.11;100.00
9421;BME280;4749;51.398;5.466;2023-03-15T02:42:15;101116.81;;;4.07;100.00
9421;BME280;4749;51.398;5.466;2023-03-15T02:44:44;101130.63;;;4.04;100.00
9421;BME280;4749;51.398;5.466;2023-03-15T02:47:26;101129.59;;;4.01;100.00
9421;BME280;4749;51.398;5.466;2023-03-15T02:49:53;101139.91;;;3.98;100.00
9421;BME280;4749;51.398;5.466;2023-03-15T02:52:22;101140.63;;;3.93;100.00
9421;BME280;4749;51.398;5.466;2023-03-15T02:54:49;101153.53;;;3.90;100.00
9421;BME280;4749;51.398;5.466;2023-03-15T02:57:18;101150.91;;;3.89;100.00
9421;BME280;4749;51.398;5.466;2023-03-15T02:59:46;101149.13;;;3.88;100.00
9421;BME280;4749;51.398;5.466;2023-03-15T03:02:17;101154.34;;;3.88;100.00
9421;BME280;4749;51.398;5.466;2023-03-15T03:04:44;101155.22;;;3.88;100.00
9421;BME280;4749;51.398;5.466;2023-03-15T03:07:11;101162.13;;;3.88;100.00
9421;BME280;4749;51.398;5.466;2023-03-15T03:09:39;101162.06;;;3.86;100.00
9421;BME280;4749;51.398;5.466;2023-03-15T03:12:06;101168.97;;;3.86;100.00
9421;BME280;4749;51.398;5.466;2023-03-15T03:14:34;101172.47;;;3.86;100.00
9421;BME280;4749;51.398;5.466;2023-03-15T03:17:01;101173.38;;;3.87;100.00
9421;BME280;4749;51.398;5.466;2023-03-15T03:19:28;101174.25;;;3.87;100.00
9421;BME280;4749;51.398;5.466;2023-03-15T03:21:55;101176.88;;;3.87;100.00
9421;BME280;4749;51.398;5.466;2023-03-15T03:24:23;101189.88;;;3.87;100.00
9421;BME280;4749;51.398;5.466;2023-03-15T03:26:51;101195.94;;;3.88;100.00
9421;BME280;4749;51.398;5.466;2023-03-15T03:29:25;101197.66;;;3.87;100.00
9421;BME280;4749;51.398;5.466;2023-03-15T03:31:52;101198.47;;;3.86;100.00
9421;BME280;4749;51.398;5.466;2023-03-15T03:34:19;101200.13;;;3.84;100.00
9421;BME280;4749;51.398;5.466;2023-03-15T03:36:46;101199.13;;;3.79;100.00
9421;BME280;4749;51.398;5.466;2023-03-15T03:39:14;101205.91;;;3.76;100.00
9421;BME280;4749;51.398;5.466;2023-03-15T03:41:41;101211.84;;;3.72;100.00
9421;BME280;4749;51.398;5.466;2023-03-15T03:44:08;101210.72;;;3.65;100.00
9421;BME280;4749;51.398;5.466;2023-03-15T03:46:36;101215.69;;;3.59;100.00
9421;BME280;4749;51.398;5.466;2023-03-15T03:49:03;101209.38;;;3.52;100.00
9421;BME280;4749;51.398;5.466;2023-03-15T03:51:30;101209.16;;;3.46;100.00
9421;BME280;4749;51.398;5.466;2023-03-15T03:54:01;101213.25;;;3.39;100.00
9421;BME280;4749;51.398;5.466;2023-03-15T03:56:28;101206.97;;;3.34;100.00
9421;BME280;4749;51.398;5.466;2023-03-15T03:58:55;101215.44;;;3.29;100.00
9421;BME280;4749;51.398;5.466;2023-03-15T04:01:23;101223.88;;;3.23;100.00
9421;BME280;4749;51.398;5.466;2023-03-15T04:03:50;101226.28;;;3.19;100.00
9421;BME280;4749;51.398;5.466;2023-03-15T04:06:18;101236.53;;;3.14;100.00
9421;BME280;4749;51.398;5.466;2023-03-15T04:08:46;101232.84;;;3.09;100.00
9421;BME280;4749;51.398;5.466;2023-03-15T04:11:13;101241.38;;;3.05;100.00
9421;BME280;4749;51.398;5.466;2023-03-15T04:13:43;101255.03;;;3.01;100.00
9421;BME280;4749;51.398;5.466;2023-03-15T04:16:13;101254.88;;;2.96;100.00
9421;BME280;4749;51.398;5.466;2023-03-15T04:18:41;101250.38;;;2.92;100.00
9421;BME280;4749;51.398;5.466;2023-03-15T04:21:08;101267.56;;;2.89;100.00
9421;BME280;4749;51.398;5.466;2023-03-15T04:23:37;101263.03;;;2.85;100.00
9421;BME280;4749;51.398;5.466;2023-03-15T04:26:04;101271.59;;;2.82;100.00
9421;BME280;4749;51.398;5.466;2023-03-15T04:28:31;101265.41;;;2.78;100.00
9421;BME280;4749;51.398;5.466;2023-03-15T04:30:58;101270.47;;;2.75;100.00
9421;BME280;4749;51.398;5.466;2023-03-15T04:33:27;101272.94;;;2.72;100.00
9421;BME280;4749;51.398;5.466;2023-03-15T04:35:54;101275.50;;;2.71;100.00
9421;BME280;4749;51.398;5.466;2023-03-15T04:38:23;101285.72;;;2.68;100.00
9421;BME280;4749;51.398;5.466;2023-03-15T04:40:53;101281.25;;;2.64;100.00
9421;BME280;4749;51.398;5.466;2023-03-15T04:43:21;101293.19;;;2.60;100.00
9421;BME280;4749;51.398;5.466;2023-03-15T04:45:50;101294.09;;;2.61;100.00
9421;BME280;4749;51.398;5.466;2023-03-15T04:48:18;101289.59;;;2.57;100.00
9421;BME280;4749;51.398;5.466;2023-03-15T04:50:45;101299.09;;;2.56;100.00
9421;BME280;4749;51.398;5.466;2023-03-15T04:53:13;101295.50;;;2.52;100.00
9421;BME280;4749;51.398;5.466;2023-03-15T04:55:40;101291.91;;;2.50;100.00
9421;BME280;4749;51.398;5.466;2023-03-15T04:58:07;101302.19;;;2.47;100.00
9421;BME280;4749;51.398;5.466;2023-03-15T05:00:35;101299.53;;;2.46;100.00
9421;BME280;4749;51.398;5.466;2023-03-15T05:03:02;101300.25;;;2.43;100.00
9421;BME280;4749;51.398;5.466;2023-03-15T05:05:32;101298.44;;;2.41;100.00
9421;BME280;4749;51.398;5.466;2023-03-15T05:08:00;101307.00;;;2.38;100.00
9421;BME280;4749;51.398;5.466;2023-03-15T05:10:27;101311.22;;;2.36;100.00
9421;BME280;4749;51.398;5.466;2023-03-15T05:12:59;101317.97;;;2.33;100.00
9421;BME280;4749;51.398;5.466;2023-03-15T05:15:26;101319.56;;;2.29;100.00
9421;BME280;4749;51.398;5.466;2023-03-15T05:17:53;101322.88;;;2.26;100.00
9421;BME280;4749;51.398;5.466;2023-03-15T05:20:22;101324.53;;;2.24;100.00
9421;BME280;4749;51.398;5.466;2023-03-15T05:22:49;101336.56;;;2.22;100.00
9421;BME280;4749;51.398;5.466;2023-03-15T05:25:19;101335.56;;;2.19;100.00
9421;BME280;4749;51.398;5.466;2023-03-15T05:27:46;101348.44;;;2.17;100.00
9421;BME280;4749;51.398;5.466;2023-03-15T05:30:14;101347.47;;;2.15;100.00
9421;BME280;4749;51.398;5.466;2023-03-15T05:32:42;101344.88;;;2.15;100.00
9421;BME280;4749;51.398;5.466;2023-03-15T05:35:11;101350.03;;;2.14;100.00
9421;BME280;4749;51.398;5.466;2023-03-15T05:37:39;101353.44;;;2.13;100.00
9421;BME280;4749;51.398;5.466;2023-03-15T05:40:07;101346.41;;;2.10;100.00
9421;BME280;4749;51.398;5.466;2023-03-15T05:42:35;101354.19;;;2.10;100.00
9421;BME280;4749;51.398;5.466;2023-03-15T05:45:02;101348.09;;;2.10;100.00
9421;BME280;4749;51.398;5.466;2023-03-15T05:47:30;101354.09;;;2.09;100.00
9421;BME280;4749;51.398;5.466;2023-03-15T05:50:00;101350.69;;;2.10;100.00
9421;BME280;4749;51.398;5.466;2023-03-15T05:52:27;101357.56;;;2.09;100.00
9421;BME280;4749;51.398;5.466;2023-03-15T05:54:54;101349.06;;;2.12;100.00
9421;BME280;4749;51.398;5.466;2023-03-15T05:57:22;101354.25;;;2.12;100.00
9421;BME280;4749;51.398;5.466;2023-03-15T05:59:49;101365.47;;;2.11;100.00
9421;BME280;4749;51.398;5.466;2023-03-15T06:02:16;101381.09;;;2.12;100.00
9421;BME280;4749;51.398;5.466;2023-03-15T06:04:43;101375.91;;;2.12;100.00
9421;BME280;4749;51.398;5.466;2023-03-15T06:07:10;101377.59;;;2.12;100.00
9421;BME280;4749;51.398;5.466;2023-03-15T06:09:37;101384.56;;;2.13;100.00
9421;BME280;4749;51.398;5.466;2023-03-15T06:12:05;101383.88;;;2.17;100.00
9421;BME280;4749;51.398;5.466;2023-03-15T06:14:32;101389.13;;;2.18;100.00
9421;BME280;4749;51.398;5.466;2023-03-15T06:17:00;101384.09;;;2.21;100.00
9421;BME280;4749;51.398;5.466;2023-03-15T06:19:27;101391.06;;;2.22;100.00
9421;BME280;4749;51.398;5.466;2023-03-15T06:21:55;101395.53;;;2.26;100.00
9421;BME280;4749;51.398;5.466;2023-03-15T06:24:22;101397.41;;;2.29;100.00
9421;BME280;4749;51.398;5.466;2023-03-15T06:26:50;101412.28;;;2.33;100.00
9421;BME280;4749;51.398;5.466;2023-03-15T06:29:21;101406.44;;;2.37;100.00
9421;BME280;4749;51.398;5.466;2023-03-15T06:31:50;101418.84;;;2.44;100.00
9421;BME280;4749;51.398;5.466;2023-03-15T06:34:19;101425.41;;;2.56;100.00
9421;BME280;4749;51.398;5.466;2023-03-15T06:36:47;101434.41;;;2.64;100.00
9421;BME280;4749;51.398;5.466;2023-03-15T06:39:15;101439.13;;;2.72;100.00
9421;BME280;4749;51.398;5.466;2023-03-15T06:41:42;101447.44;;;2.85;100.00
9421;BME280;4749;51.398;5.466;2023-03-15T06:44:10;101448.09;;;3.00;100.00
9421;BME280;4749;51.398;5.466;2023-03-15T06:46:38;101456.63;;;3.17;100.00
9421;BME280;4749;51.398;5.466;2023-03-15T06:49:06;101462.47;;;3.32;100.00
9421;BME280;4749;51.398;5.466;2023-03-15T06:51:33;101463.03;;;3.46;100.00
9421;BME280;4749;51.398;5.466;2023-03-15T06:54:00;101469.56;;;3.57;100.00
9421;BME280;4749;51.398;5.466;2023-03-15T06:56:28;101471.66;;;3.65;100.00
9421;BME280;4749;51.398;5.466;2023-03-15T06:58:55;101479.75;;;3.73;100.00
9421;BME280;4749;51.398;5.466;2023-03-15T07:01:22;101477.41;;;3.79;100.00
9421;BME280;4749;51.398;5.466;2023-03-15T07:03:49;101476.13;;;3.90;100.00
9421;BME280;4749;51.398;5.466;2023-03-15T07:06:17;101475.53;;;3.98;100.00
9421;BME280;4749;51.398;5.466;2023-03-15T07:08:44;101482.81;;;4.06;100.00
9421;BME280;4749;51.398;5.466;2023-03-15T07:11:12;101485.78;;;4.15;100.00
9421;BME280;4749;51.398;5.466;2023-03-15T07:13:40;101483.47;;;4.23;100.00
9421;BME280;4749;51.398;5.466;2023-03-15T07:16:07;101496.94;;;4.35;100.00
9421;BME280;4749;51.398;5.466;2023-03-15T07:18:34;101499.78;;;4.41;100.00
9421;BME280;4749;51.398;5.466;2023-03-15T07:21:04;101506.13;;;4.48;100.00
9421;BME280;4749;51.398;5.466;2023-03-15T07:23:31;101508.03;;;4.53;100.00
9421;BME280;4749;51.398;5.466;2023-03-15T07:25:59;101522.09;;;4.57;100.00
9421;BME280;4749;51.398;5.466;2023-03-15T07:28:27;101515.22;;;4.59;100.00
9421;BME280;4749;51.398;5.466;2023-03-15T07:31:03;101519.59;;;4.60;100.00
9421;BME280;4749;51.398;5.466;2023-03-15T07:33:32;101530.19;;;4.65;100.00
9421;BME280;4749;51.398;5.466;2023-03-15T07:36:02;101527.94;;;4.74;100.00
9421;BME280;4749;51.398;5.466;2023-03-15T07:38:31;101538.72;;;4.85;100.00
9421;BME280;4749;51.398;5.466;2023-03-15T07:41:01;101540.94;;;4.96;100.00
9421;BME280;4749;51.398;5.466;2023-03-15T07:43:29;101549.13;;;5.07;100.00
9421;BME280;4749;51.398;5.466;2023-03-15T07:45:57;101544.13;;;5.13;100.00
9421;BME280;4749;51.398;5.466;2023-03-15T07:48:24;101548.78;;;5.22;100.00
9421;BME280;4749;51.398;5.466;2023-03-15T07:50:51;101545.53;;;5.29;100.00
9421;BME280;4749;51.398;5.466;2023-03-15T07:53:18;101550.16;;;5.36;100.00
9421;BME280;4749;51.398;5.466;2023-03-15T07:55:47;101553.69;;;5.38;100.00
9421;BME280;4749;51.398;5.466;2023-03-15T07:58:15;101566.81;;;5.40;100.00
9421;BME280;4749;51.398;5.466;2023-03-15T08:00:46;101569.47;;;5.41;100.00
9421;BME280;4749;51.398;5.466;2023-03-15T08:03:13;101568.66;;;5.44;100.00
9421;BME280;4749;51.398;5.466;2023-03-15T08:05:40;101576.53;;;5.45;100.00
9421;BME280;4749;51.398;5.466;2023-03-15T08:08:08;101581.84;;;5.47;100.00
9421;BME280;4749;51.398;5.466;2023-03-15T08:10:35;101582.72;;;5.47;100.00
9421;BME280;4749;51.398;5.466;2023-03-15T08:13:02;101583.69;;;5.51;100.00
9421;BME280;4749;51.398;5.466;2023-03-15T08:15:29;101596.66;;;5.48;100.00
9421;BME280;4749;51.398;5.466;2023-03-15T08:17:56;101601.59;;;5.40;100.00
9421;BME280;4749;51.398;5.466;2023-03-15T08:20:26;101599.53;;;5.31;100.00
9421;BME280;4749;51.398;5.466;2023-03-15T08:22:55;101609.13;;;5.32;100.00
9421;BME280;4749;51.398;5.466;2023-03-15T08:25:24;101600.75;;;5.41;100.00
9421;BME280;4749;51.398;5.466;2023-03-15T08:27:52;101610.56;;;5.48;100.00
9421;BME280;4749;51.398;5.466;2023-03-15T08:30:20;101615.75;;;5.47;100.00
9421;BME280;4749;51.398;5.466;2023-03-15T08:32:49;101609.75;;;5.49;100.00
9421;BME280;4749;51.398;5.466;2023-03-15T08:35:20;101615.19;;;5.55;100.00
9421;BME280;4749;51.398;5.466;2023-03-15T08:37:50;101617.00;;;5.58;100.00
9421;BME280;4749;51.398;5.466;2023-03-15T08:40:20;101619.84;;;5.64;100.00
9421;BME280;4749;51.398;5.466;2023-03-15T08:42:51;101622.59;;;5.69;100.00
9421;BME280;4749;51.398;5.466;2023-03-15T08:45:19;101615.81;;;5.74;100.00
9421;BME280;4749;51.398;5.466;2023-03-15T08:47:46;101620.41;;;5.81;100.00
9421;BME280;4749;51.398;5.466;2023-03-15T08:50:15;101622.38;;;5.88;100.00
9421;BME280;4749;51.398;5.466;2023-03-15T08:52:43;101626.13;;;5.95;100.00
9421;BME280;4749;51.398;5.466;2023-03-15T08:55:11;101639.44;;;6.02;100.00
9421;BME280;4749;51.398;5.466;2023-03-15T08:57:41;101631.84;;;6.10;100.00
9421;BME280;4749;51.398;5.466;2023-03-15T09:00:11;101634.69;;;6.16;100.00
9421;BME280;4749;51.398;5.466;2023-03-15T09:02:49;101641.00;;;6.23;100.00
9421;BME280;4749;51.398;5.466;2023-03-15T09:05:19;101642.91;;;6.28;100.00
9421;BME280;4749;51.398;5.466;2023-03-15T09:07:48;101642.28;;;6.35;100.00
9421;BME280;4749;51.398;5.466;2023-03-15T09:10:16;101645.97;;;6.42;100.00
9421;BME280;4749;51.398;5.466;2023-03-15T09:12:46;101647.06;;;6.48;100.00
9421;BME280;4749;51.398;5.466;2023-03-15T09:15:14;101653.34;;;6.55;100.00
9421;BME280;4749;51.398;5.466;2023-03-15T09:17:41;101657.97;;;6.64;100.00
9421;BME280;4749;51.398;5.466;2023-03-15T09:20:12;101659.94;;;6.71;100.00
9421;BME280;4749;51.398;5.466;2023-03-15T09:22:51;101654.09;;;6.78;100.00
9421;BME280;4749;51.398;5.466;2023-03-15T09:25:20;101653.44;;;6.85;100.00
9421;BME280;4749;51.398;5.466;2023-03-15T09:27:48;101649.41;;;6.96;100.00
9421;BME280;4749;51.398;5.466;2023-03-15T09:30:16;101656.88;;;7.13;100.00
9421;BME280;4749;51.398;5.466;2023-03-15T09:32:44;101652.38;;;7.07;100.00
9421;BME280;4749;51.398;5.466;2023-03-15T09:35:16;101660.06;;;7.02;100.00
9421;BME280;4749;51.398;5.466;2023-03-15T09:37:43;101666.97;;;7.30;100.00
9421;BME280;4749;51.398;5.466;2023-03-15T09:40:38;101663.06;;;7.76;100.00
9421;BME280;4749;51.398;5.466;2023-03-15T09:46:24;101659.63;;;8.45;100.00
9421;BME280;4749;51.398;5.466;2023-03-15T09:54:31;101661.00;;;9.06;100.00
9421;BME280;4749;51.398;5.466;2023-03-15T09:57:09;101662.97;;;9.16;100.00
9421;BME280;4749;51.398;5.466;2023-03-15T09:59:45;101674.06;;;9.03;100.00
9421;BME280;4749;51.398;5.466;2023-03-15T10:02:27;101681.09;;;9.04;100.00
9421;BME280;4749;51.398;5.466;2023-03-15T10:05:09;101677.22;;;9.26;100.00
9421;BME280;4749;51.398;5.466;2023-03-15T10:07:38;101672.34;;;9.44;100.00
9421;BME280;4749;51.398;5.466;2023-03-15T10:10:21;101661.19;;;9.56;100.00
9421;BME280;4749;51.398;5.466;2023-03-15T10:19:14;101668.59;;;9.75;100.00
9421;BME280;4749;51.398;5.466;2023-03-15T10:25:08;101665.31;;;9.88;100.00
9421;BME280;4749;51.398;5.466;2023-03-15T10:27:53;101666.38;;;9.98;100.00
9421;BME280;4749;51.398;5.466;2023-03-15T10:30:31;101669.22;;;10.09;100.00
9421;BME280;4749;51.398;5.466;2023-03-15T10:33:33;101672.03;;;10.21;100.00
9421;BME280;4749;51.398;5.466;2023-03-15T10:38:44;101677.47;;;10.29;100.00
9421;BME280;4749;51.398;5.466;2023-03-15T10:41:14;101682.66;;;10.26;100.00
9421;BME280;4749;51.398;5.466;2023-03-15T10:44:04;101685.06;;;10.15;100.00
9421;BME280;4749;51.398;5.466;2023-03-15T10:46:32;101685.25;;;10.24;100.00
9421;BME280;4749;51.398;5.466;2023-03-15T10:49:15;101689.13;;;10.45;100.00
9421;BME280;4749;51.398;5.466;2023-03-15T10:51:44;101691.91;;;10.54;100.00
9421;BME280;4749;51.398;5.466;2023-03-15T10:54:21;101698.63;;;10.36;100.00
9421;BME280;4749;51.398;5.466;2023-03-15T10:57:11;101703.53;;;10.18;100.00
9421;BME280;4749;51.398;5.466;2023-03-15T11:00:26;101713.00;;;10.10;100.00
9421;BME280;4749;51.398;5.466;2023-03-15T11:03:27;101713.81;;;10.07;100.00
9421;BME280;4749;51.398;5.466;2023-03-15T11:05:56;101722.31;;;9.93;100.00
9421;BME280;4749;51.398;5.466;2023-03-15T11:08:40;101722.03;;;9.79;100.00
9421;BME280;4749;51.398;5.466;2023-03-15T11:11:08;101730.47;;;9.64;100.00
9421;BME280;4749;51.398;5.466;2023-03-15T11:13:38;101728.38;;;9.46;100.00
9421;BME280;4749;51.398;5.466;2023-03-15T11:18:59;101737.28;;;9.15;100.00
9421;BME280;4749;51.398;5.466;2023-03-15T11:21:31;101743.31;;;9.10;100.00
9421;BME280;4749;51.398;5.466;2023-03-15T11:24:04;101752.84;;;9.08;100.00
9421;BME280;4749;51.398;5.466;2023-03-15T11:26:38;101748.25;;;8.97;100.00
9421;BME280;4749;51.398;5.466;2023-03-15T11:29:18;101749.91;;;8.92;100.00
9421;BME280;4749;51.398;5.466;2023-03-15T11:31:48;101748.03;;;8.88;100.00
9421;BME280;4749;51.398;5.466;2023-03-15T11:37:22;101753.03;;;8.78;100.00
9421;BME280;4749;51.398;5.466;2023-03-15T11:43:12;101748.47;;;8.70;100.00
9421;BME280;4749;51.398;5.466;2023-03-15T11:46:05;101745.56;;;8.94;100.00
9421;BME280;4749;51.398;5.466;2023-03-15T11:48:50;101747.09;;;8.85;100.00
9421;BME280;4749;51.398;5.466;2023-03-15T11:51:19;101744.13;;;8.71;100.00
9421;BME280;4749;51.398;5.466;2023-03-15T11:54:08;101737.75;;;8.60;100.00
9421;BME280;4749;51.398;5.466;2023-03-15T11:56:52;101741.94;;;8.53;100.00
9421;BME280;4749;51.398;5.466;2023-03-15T11:59:36;101729.78;;;8.57;100.00
9421;BME280;4749;51.398;5.466;2023-03-15T12:04:49;101722.41;;;8.77;100.00
9421;BME280;4749;51.398;5.466;2023-03-15T12:10:28;101728.00;;;9.29;100.00
9421;BME280;4749;51.398;5.466;2023-03-15T12:12:55;101722.53;;;9.59;100.00
9421;BME280;4749;51.398;5.466;2023-03-15T12:17:58;101719.94;;;10.08;100.00
9421;BME280;4749;51.398;5.466;2023-03-15T12:20:43;101717.81;;;10.34;100.00
9421;BME280;4749;51.398;5.466;2023-03-15T12:25:54;101734.28;;;10.74;100.00
9421;BME280;4749;51.398;5.466;2023-03-15T12:28:50;101728.50;;;10.94;100.00
9421;BME280;4749;51.398;5.466;2023-03-15T12:31:18;101730.41;;;11.06;100.00
9421;BME280;4749;51.398;5.466;2023-03-15T12:33:56;101731.38;;;11.11;100.00
9421;BME280;4749;51.398;5.466;2023-03-15T12:36:35;101729.50;;;11.04;100.00
9421;BME280;4749;51.398;5.466;2023-03-15T12:41:45;101736.16;;;10.81;100.00
9421;BME280;4749;51.398;5.466;2023-03-15T12:44:26;101728.13;;;10.73;100.00
9421;BME280;4749;51.398;5.466;2023-03-15T12:47:07;101726.47;;;10.77;100.00
9421;BME280;4749;51.398;5.466;2023-03-15T12:49:42;101739.63;;;10.77;100.00
9421;BME280;4749;51.398;5.466;2023-03-15T12:52:30;101732.63;;;10.80;100.00
9421;BME280;4749;51.398;5.466;2023-03-15T12:55:12;101733.63;;;10.85;100.00
9421;BME280;4749;51.398;5.466;2023-03-15T12:57:49;101734.53;;;10.90;100.00
9421;BME280;4749;51.398;5.466;2023-03-15T13:00:27;101737.25;;;10.95;100.00
9421;BME280;4749;51.398;5.466;2023-03-15T13:03:28;101741.75;;;11.02;100.00
9421;BME280;4749;51.398;5.466;2023-03-15T13:17:47;101733.94;;;11.10;100.00
9421;BME280;4749;51.398;5.466;2023-03-15T13:23:12;101731.41;;;11.14;100.00
9421;BME280;4749;51.398;5.466;2023-03-15T13:26:12;101729.66;;;11.16;100.00
9421;BME280;4749;51.398;5.466;2023-03-15T13:29:03;101731.50;;;11.20;100.00
9421;BME280;4749;51.398;5.466;2023-03-15T13:31:36;101729.59;;;11.10;100.00
9421;BME280;4749;51.398;5.466;2023-03-15T13:34:22;101732.16;;;11.06;100.00
9421;BME280;4749;51.398;5.466;2023-03-15T13:36:56;101730.56;;;11.17;100.00
9421;BME280;4749;51.398;5.466;2023-03-15T13:39:28;101722.63;;;11.15;100.00
9421;BME280;4749;51.398;5.466;2023-03-15T13:42:02;101724.50;;;11.22;100.00
9421;BME280;4749;51.398;5.466;2023-03-15T13:44:31;101724.63;;;11.32;100.00
9421;BME280;4749;51.398;5.466;2023-03-15T13:46:59;101726.50;;;11.42;100.00
9421;BME280;4749;51.398;5.466;2023-03-15T13:49:33;101725.63;;;11.41;98.94
9421;BME280;4749;51.398;5.466;2023-03-15T13:52:04;101728.44;;;11.52;98.89
9421;BME280;4749;51.398;5.466;2023-03-15T13:54:38;101725.03;;;11.62;98.05
9421;BME280;4749;51.398;5.466;2023-03-15T13:57:20;101731.28;;;11.72;92.61
9421;BME280;4749;51.398;5.466;2023-03-15T14:00:04;101730.56;;;11.80;91.68
9421;BME280;4749;51.398;5.466;2023-03-15T14:02:53;101730.56;;;11.83;90.20
9421;BME280;4749;51.398;5.466;2023-03-15T14:05:29;101728.03;;;11.90;90.90
9421;BME280;4749;51.398;5.466;2023-03-15T14:08:04;101728.13;;;12.02;88.77
9421;BME280;4749;51.398;5.466;2023-03-15T14:13:27;101737.94;;;12.14;83.57
9421;BME280;4749;51.398;5.466;2023-03-15T14:16:11;101734.44;;;12.13;83.42
9421;BME280;4749;51.398;5.466;2023-03-15T14:18:41;101731.78;;;12.13;83.08
9421;BME280;4749;51.398;5.466;2023-03-15T14:21:17;101731.78;;;12.13;81.84
9421;BME280;4749;51.398;5.466;2023-03-15T14:23:47;101738.84;;;12.14;80.33
9421;BME280;4749;51.398;5.466;2023-03-15T14:26:35;101728.28;;;12.13;78.90
9421;BME280;4749;51.398;5.466;2023-03-15T14:29:16;101724.78;;;12.14;78.22
9421;BME280;4749;51.398;5.466;2023-03-15T14:31:48;101728.22;;;12.08;78.29
9421;BME280;4749;51.398;5.466;2023-03-15T14:36:51;101740.59;;;12.15;77.40
9421;BME280;4749;51.398;5.466;2023-03-15T14:39:37;101741.50;;;12.19;75.43